CAP weather

Cap Haitien International Airport
Cap Haitien, Nord Department, Haiti

Public forecast

Using degrees Celsius for public forecast. Weather courtesy of forecast.io.

Current aviation weather report (METAR) for Cap Haitien International Airport

Retrieved 2019/10/22 14:59 UTC (3 minutes ago):

MTCH 221459Z 02007KT 9999 FEW030TCU 29/22 Q1015 A2999 RMK

Aviation forecast (TAF) for Cap Haitien International Airport

Retrieved 2019/10/22 12:03 UTC (3 hours ago):

TAF TAF MTCH 221200Z 2212/2312 VRB02KT 9000 FEW020 FM221500 04010KT 9999 FEW040 PROB30 TEMPO 2300/2305 TSRA SCT026CB BKN050 BECMG 2306/2310 VRB02KT 9000 NSW FEW020